Sylvan Township, Michigan
Current Conditions -  °F | °C
As of 6:53 PM on Sunday 23 Nov 2014 (Local Time) from KARB Reporting Station
Light Rain Light Rain  
Wind Chill:   Ceiling: 7000
Heat Index:   Visibility: 9mi
Dew Point:   Wind: 9mph
Humidity: 83%   Direction: 100°E
Pressure: 29.56"   Gusts: NA
Location:  42.3129°N, 84.0322°W
Report Text: KARB 232353Z AUTO 10008KT 9SM -RA SCT060 BKN070 OVC090 09/06 A2956 RMK AO2 SLP011 P0001 60006 T00890061 10122 20089 58041
Loading
Personal Weather Stations






























Interactive Weather Map New forecast layout! Learn more

10-Day Weather Forecast

Advertisements
Track Severe Weather on mobile